Time;durP1;ratioP1;P1;durP2;ratioP2;P2;SDS_P1;SDS_P2;PMS_P1;PMS_P2;Temp;Humidity;BMP_temperature;BMP_pressure;BME280_temperature;BME280_humidity;BME280_pressure;Samples;Min_cycle;Max_cycle;Signal;HPM_P1;HPM_P2
2021/12/16 00:04:28;;;;;;;;;34.75;32.00;;;;;;;;4991614;28;45474;-81
2021/12/16 00:09:06;;;;;;;;;31.50;28.75;;;;;;;;4991888;28;45424;-81
2021/12/16 00:35:34;;;;;;;;;34.50;31.00;;;;;;;;4983848;28;45446;-80
2021/12/16 00:37:59;;;;;;;;;37.25;30.25;;;;;;;;4991684;28;45331;-80
2021/12/16 00:40:25;;;;;;;;;34.25;29.00;;;;;;;;4997464;28;45465;-80
2021/12/16 00:42:55;;;;;;;;;34.00;31.50;;;;;;;;5053204;28;46190;-75
2021/12/16 00:48:22;;;;;;;;;36.25;28.25;;;;;;;;5047396;28;45797;-81
2021/12/16 00:56:01;;;;;;;;;30.50;25.50;;;;;;;;5050685;28;45321;-81
2021/12/16 00:58:36;;;;;;;;;36.00;33.25;;;;;;;;5052968;28;45481;-81
2021/12/16 01:01:54;;;;;;;;;35.00;31.50;;;;;;;;5050265;28;45523;-81
2021/12/16 01:09:52;;;;;;;;;41.25;33.50;;;;;;;;5054131;28;45501;-80
2021/12/16 01:34:09;;;;;;;;;37.75;31.75;;;;;;;;5054356;28;45314;-80
2021/12/16 01:50:08;;;;;;;;;43.25;35.75;;;;;;;;5038647;28;45395;-80
2021/12/16 01:55:25;;;;;;;;;46.25;37.75;;;;;;;;5054395;28;45382;-80
2021/12/16 01:57:58;;;;;;;;;37.75;36.25;;;;;;;;5053803;28;46505;-79
2021/12/16 02:00:27;;;;;;;;;45.75;39.50;;;;;;;;5054202;28;45518;-78
2021/12/16 02:02:59;;;;;;;;;46.25;37.25;;;;;;;;5043957;28;45319;-81
2021/12/16 02:10:26;;;;;;;;;50.25;39.50;;;;;;;;5055766;28;45362;-78
2021/12/16 02:12:56;;;;;;;;;51.25;40.25;;;;;;;;5053540;28;45473;-79
2021/12/16 02:36:36;;;;;;;;;49.00;39.50;;;;;;;;5054039;28;45459;-80
2021/12/16 02:39:07;;;;;;;;;40.00;36.00;;;;;;;;5048511;28;47072;-80
2021/12/16 02:41:32;;;;;;;;;48.25;39.25;;;;;;;;5052330;28;45564;-80
2021/12/16 02:49:28;;;;;;;;;53.50;39.50;;;;;;;;5055763;28;45851;-81
2021/12/16 02:51:53;;;;;;;;;49.50;40.00;;;;;;;;5052355;28;45380;-80
2021/12/16 02:54:18;;;;;;;;;48.75;38.00;;;;;;;;5053494;28;45397;-81
2021/12/16 02:56:44;;;;;;;;;46.75;40.00;;;;;;;;5053073;28;45513;-82
2021/12/16 02:59:09;;;;;;;;;47.00;39.75;;;;;;;;5053839;28;46336;-81
2021/12/16 03:01:40;;;;;;;;;47.50;39.25;;;;;;;;5055425;28;45369;-81
2021/12/16 03:04:08;;;;;;;;;48.50;41.25;;;;;;;;5053319;28;45375;-81
2021/12/16 03:06:34;;;;;;;;;50.00;39.25;;;;;;;;5052361;28;45434;-81
2021/12/16 03:09:00;;;;;;;;;50.50;40.25;;;;;;;;5052107;28;46977;-80
2021/12/16 03:21:52;;;;;;;;;49.00;40.00;;;;;;;;5054740;28;45356;-80
2021/12/16 03:27:40;;;;;;;;;51.00;41.50;;;;;;;;5053204;28;45475;-79
2021/12/16 03:35:14;;;;;;;;;46.25;38.25;;;;;;;;5052223;28;45328;-80
2021/12/16 03:37:39;;;;;;;;;48.50;40.50;;;;;;;;5054808;28;45462;-80
2021/12/16 03:40:10;;;;;;;;;46.75;40.25;;;;;;;;5053842;28;46737;-78
2021/12/16 03:42:38;;;;;;;;;44.00;38.25;;;;;;;;5052881;28;45472;-80
2021/12/16 03:48:06;;;;;;;;;51.25;42.00;;;;;;;;5053098;28;45433;-79
2021/12/16 03:50:33;;;;;;;;;44.50;36.50;;;;;;;;5052919;28;45402;-79
2021/12/16 03:52:59;;;;;;;;;51.00;43.25;;;;;;;;5053944;28;45696;-78
2021/12/16 03:55:24;;;;;;;;;48.75;39.50;;;;;;;;5054716;28;45384;-78
2021/12/16 03:57:49;;;;;;;;;52.25;43.00;;;;;;;;5051163;28;45356;-79
2021/12/16 04:00:17;;;;;;;;;51.00;41.25;;;;;;;;5053764;28;46305;-79
2021/12/16 04:02:42;;;;;;;;;51.75;41.50;;;;;;;;5051190;28;45715;-81
2021/12/16 04:05:09;;;;;;;;;53.00;40.00;;;;;;;;5052988;28;45797;-80
2021/12/16 04:07:35;;;;;;;;;49.00;39.75;;;;;;;;5054178;28;45625;-81
2021/12/16 04:10:03;;;;;;;;;49.75;41.25;;;;;;;;5053001;28;45535;-79
2021/12/16 04:12:29;;;;;;;;;52.00;41.25;;;;;;;;5050435;28;46265;-79
2021/12/16 04:14:56;;;;;;;;;51.50;40.50;;;;;;;;5052527;28;45671;-81
2021/12/16 04:17:23;;;;;;;;;45.75;39.00;;;;;;;;5051817;28;45327;-81
2021/12/16 04:19:48;;;;;;;;;51.75;38.75;;;;;;;;5054756;28;45347;-79
2021/12/16 04:22:17;;;;;;;;;52.75;42.75;;;;;;;;5050491;28;45737;-81
2021/12/16 04:24:44;;;;;;;;;51.25;43.25;;;;;;;;5052087;28;45434;-81
2021/12/16 04:27:09;;;;;;;;;43.75;38.00;;;;;;;;5052287;28;45856;-81
2021/12/16 04:29:35;;;;;;;;;51.25;39.75;;;;;;;;5051974;28;45489;-81
2021/12/16 04:32:00;;;;;;;;;48.00;39.75;;;;;;;;5052329;28;45423;-80
2021/12/16 04:34:26;;;;;;;;;53.25;43.75;;;;;;;;5054023;28;45355;-80
2021/12/16 04:36:52;;;;;;;;;53.75;42.00;;;;;;;;5051450;28;45860;-81
2021/12/16 04:39:20;;;;;;;;;47.25;39.50;;;;;;;;5054744;28;46897;-81
2021/12/16 04:41:46;;;;;;;;;51.25;42.00;;;;;;;;5055034;28;45554;-81
2021/12/16 04:44:12;;;;;;;;;53.50;42.25;;;;;;;;5055430;28;45497;-81
2021/12/16 04:46:38;;;;;;;;;55.75;43.25;;;;;;;;5056623;28;45575;-81
2021/12/16 04:49:06;;;;;;;;;54.25;43.75;;;;;;;;5055774;28;45932;-82
2021/12/16 04:51:32;;;;;;;;;57.00;45.75;;;;;;;;5056066;28;45465;-81
2021/12/16 04:53:58;;;;;;;;;59.00;46.25;;;;;;;;5055212;28;45355;-81
2021/12/16 04:56:23;;;;;;;;;70.25;56.75;;;;;;;;5053715;28;45491;-80
2021/12/16 04:58:50;;;;;;;;;75.00;60.25;;;;;;;;5053033;28;45299;-81
2021/12/16 05:01:16;;;;;;;;;64.50;49.50;;;;;;;;5055173;28;45470;-81
2021/12/16 05:03:42;;;;;;;;;59.25;45.75;;;;;;;;5056767;28;45332;-81
2021/12/16 05:06:07;;;;;;;;;58.00;46.00;;;;;;;;5052884;28;45385;-81
2021/12/16 05:08:33;;;;;;;;;58.75;46.75;;;;;;;;5052163;28;47145;-81
2021/12/16 05:11:02;;;;;;;;;52.50;42.75;;;;;;;;5056114;28;45493;-81
2021/12/16 05:13:28;;;;;;;;;52.00;43.00;;;;;;;;5053431;28;45545;-81
2021/12/16 05:15:55;;;;;;;;;47.25;40.50;;;;;;;;5053380;28;45585;-81
2021/12/16 05:18:30;;;;;;;;;51.00;43.50;;;;;;;;5054700;28;47440;-80
2021/12/16 05:20:56;;;;;;;;;52.75;41.25;;;;;;;;5056797;28;45400;-80
2021/12/16 05:26:17;;;;;;;;;52.50;42.00;;;;;;;;5054711;28;45396;-80
2021/12/16 05:28:44;;;;;;;;;54.25;43.75;;;;;;;;5056089;28;47429;-80
2021/12/16 05:31:10;;;;;;;;;49.25;41.75;;;;;;;;5054490;28;45461;-80
2021/12/16 05:33:35;;;;;;;;;50.50;42.25;;;;;;;;5054180;28;45421;-80
2021/12/16 05:36:00;;;;;;;;;47.25;39.50;;;;;;;;5054249;28;45476;-80
2021/12/16 05:38:27;;;;;;;;;50.75;41.50;;;;;;;;5054249;28;46339;-81
2021/12/16 05:40:53;;;;;;;;;50.50;39.50;;;;;;;;5055520;28;45362;-81
2021/12/16 05:43:21;;;;;;;;;43.50;37.00;;;;;;;;5054782;28;45453;-80
2021/12/16 05:45:46;;;;;;;;;48.50;39.75;;;;;;;;5056929;28;45234;-81
2021/12/16 05:48:14;;;;;;;;;56.00;42.50;;;;;;;;5051284;28;46298;-81
2021/12/16 05:50:41;;;;;;;;;46.50;38.00;;;;;;;;5053983;28;46233;-81
2021/12/16 05:53:07;;;;;;;;;44.75;37.00;;;;;;;;5054148;28;45472;-81
2021/12/16 05:55:32;;;;;;;;;49.00;40.00;;;;;;;;5054233;28;45321;-81
2021/12/16 05:58:00;;;;;;;;;46.75;39.00;;;;;;;;5052114;28;46207;-81
2021/12/16 06:00:28;;;;;;;;;44.00;37.50;;;;;;;;5053000;28;45478;-81
2021/12/16 06:02:53;;;;;;;;;43.50;38.00;;;;;;;;5054138;28;46454;-81
2021/12/16 06:05:19;;;;;;;;;44.50;36.25;;;;;;;;5054099;28;45429;-79
2021/12/16 06:07:45;;;;;;;;;38.25;35.00;;;;;;;;5054750;28;46356;-81
2021/12/16 06:10:25;;;;;;;;;45.50;39.00;;;;;;;;5052957;28;45482;-81
2021/12/16 06:12:50;;;;;;;;;43.75;36.00;;;;;;;;5048950;28;45346;-81
2021/12/16 06:15:23;;;;;;;;;39.75;34.00;;;;;;;;5054479;28;45443;-81
2021/12/16 06:28:25;;;;;;;;;48.50;38.25;;;;;;;;5054520;28;45746;-81
2021/12/16 06:30:50;;;;;;;;;46.50;39.25;;;;;;;;5051280;28;45483;-80
2021/12/16 06:33:16;;;;;;;;;36.00;32.50;;;;;;;;5053430;28;45355;-80
2021/12/16 06:35:42;;;;;;;;;51.75;40.00;;;;;;;;5053614;28;45319;-82
2021/12/16 06:38:07;;;;;;;;;44.00;36.25;;;;;;;;5052447;28;46110;-81
2021/12/16 06:40:33;;;;;;;;;47.50;36.25;;;;;;;;5054316;28;45599;-82
2021/12/16 06:43:00;;;;;;;;;44.75;37.00;;;;;;;;5051049;28;45460;-80
2021/12/16 06:45:30;;;;;;;;;47.75;39.50;;;;;;;;5050725;28;45478;-81
2021/12/16 06:48:01;;;;;;;;;50.25;39.50;;;;;;;;5050578;28;46095;-81
2021/12/16 06:50:45;;;;;;;;;49.50;41.75;;;;;;;;5052619;28;45490;-81
2021/12/16 06:53:12;;;;;;;;;45.00;36.75;;;;;;;;5053576;28;45422;-80
2021/12/16 06:55:56;;;;;;;;;51.00;40.00;;;;;;;;5054753;28;45568;-81
2021/12/16 06:58:44;;;;;;;;;53.25;41.25;;;;;;;;5052854;28;47404;-82
2021/12/16 07:01:17;;;;;;;;;47.50;40.00;;;;;;;;5052517;28;45355;-81
2021/12/16 07:03:52;;;;;;;;;46.75;38.25;;;;;;;;5051265;28;45346;-81
2021/12/16 07:06:22;;;;;;;;;44.50;37.00;;;;;;;;5051307;28;45527;-81
2021/12/16 07:08:49;;;;;;;;;45.00;37.25;;;;;;;;5049963;28;46330;-78
2021/12/16 07:11:14;;;;;;;;;51.00;39.00;;;;;;;;5051558;28;45528;-80
2021/12/16 07:13:42;;;;;;;;;50.00;40.00;;;;;;;;5053656;28;45286;-80
2021/12/16 07:16:08;;;;;;;;;51.00;41.25;;;;;;;;5051296;28;45526;-80
2021/12/16 07:18:33;;;;;;;;;49.25;39.00;;;;;;;;5049677;28;46342;-79
2021/12/16 07:20:59;;;;;;;;;52.25;40.50;;;;;;;;5052079;28;45225;-78
2021/12/16 07:23:24;;;;;;;;;51.00;41.75;;;;;;;;5051155;28;45525;-79
2021/12/16 07:25:49;;;;;;;;;58.50;46.50;;;;;;;;5053570;28;45455;-79
2021/12/16 07:28:15;;;;;;;;;50.75;40.25;;;;;;;;5048377;28;46743;-84
2021/12/16 07:30:50;;;;;;;;;49.25;41.25;;;;;;;;5051026;28;45510;-77
2021/12/16 07:33:17;;;;;;;;;50.00;41.25;;;;;;;;5049648;28;45559;-79
2021/12/16 07:35:43;;;;;;;;;42.50;36.25;;;;;;;;5050258;28;45529;-82
2021/12/16 07:38:09;;;;;;;;;58.75;47.50;;;;;;;;5050357;28;46453;-80
2021/12/16 07:40:34;;;;;;;;;48.00;43.25;;;;;;;;5052418;28;45406;-82
2021/12/16 07:45:29;;;;;;;;;58.00;45.75;;;;;;;;5051543;28;45457;-80
2021/12/16 07:47:54;;;;;;;;;52.25;41.50;;;;;;;;5048913;28;46416;-80
2021/12/16 07:50:20;;;;;;;;;54.25;42.75;;;;;;;;5051463;28;45622;-81
2021/12/16 07:52:45;;;;;;;;;47.75;38.25;;;;;;;;5053125;28;45461;-80
2021/12/16 07:55:11;;;;;;;;;57.00;44.50;;;;;;;;5047329;28;45447;-81
2021/12/16 07:57:36;;;;;;;;;50.75;38.75;;;;;;;;5046550;28;45530;-81
2021/12/16 08:00:07;;;;;;;;;48.00;37.75;;;;;;;;5053166;28;45445;-80
2021/12/16 08:02:33;;;;;;;;;51.25;41.75;;;;;;;;5049894;28;45382;-81
2021/12/16 08:04:58;;;;;;;;;48.50;38.00;;;;;;;;5051878;28;45518;-81
2021/12/16 08:07:26;;;;;;;;;48.75;40.50;;;;;;;;5052218;28;46108;-80
2021/12/16 08:09:52;;;;;;;;;56.00;43.50;;;;;;;;5049701;28;45357;-80
2021/12/16 08:12:17;;;;;;;;;44.00;37.00;;;;;;;;5053133;28;45226;-80
2021/12/16 08:17:16;;;;;;;;;50.00;37.00;;;;;;;;5053785;28;45421;-80
2021/12/16 08:19:42;;;;;;;;;45.50;36.75;;;;;;;;5057453;28;45449;-80
2021/12/16 08:22:07;;;;;;;;;55.25;41.00;;;;;;;;5055155;28;45326;-79
2021/12/16 08:24:33;;;;;;;;;53.50;41.00;;;;;;;;5054639;28;45360;-79
2021/12/16 08:26:58;;;;;;;;;53.50;42.25;;;;;;;;5056305;28;46005;-81
2021/12/16 08:29:24;;;;;;;;;49.25;40.50;;;;;;;;5055605;28;45340;-81
2021/12/16 08:31:50;;;;;;;;;51.50;39.00;;;;;;;;5059554;28;45406;-80
2021/12/16 08:34:16;;;;;;;;;48.50;38.50;;;;;;;;5054472;28;45469;-80
2021/12/16 08:36:41;;;;;;;;;43.25;36.25;;;;;;;;5054460;28;46337;-80
2021/12/16 08:39:08;;;;;;;;;53.50;41.25;;;;;;;;5055226;28;45547;-80
2021/12/16 08:41:36;;;;;;;;;45.75;36.75;;;;;;;;5054616;28;45411;-82
2021/12/16 08:44:02;;;;;;;;;40.50;36.00;;;;;;;;5054173;28;45454;-79
2021/12/16 08:46:28;;;;;;;;;50.25;42.50;;;;;;;;5055748;28;46020;-80
2021/12/16 08:48:54;;;;;;;;;50.75;42.25;;;;;;;;5053860;28;45319;-80
2021/12/16 08:51:21;;;;;;;;;53.75;41.00;;;;;;;;5061041;28;45572;-81
2021/12/16 08:53:47;;;;;;;;;50.75;41.75;;;;;;;;5056607;28;45443;-81
2021/12/16 08:56:17;;;;;;;;;51.50;40.75;;;;;;;;5055433;28;45518;-81
2021/12/16 08:58:43;;;;;;;;;41.75;37.75;;;;;;;;5056151;28;45350;-81
2021/12/16 09:01:09;;;;;;;;;52.00;42.00;;;;;;;;5055207;28;45516;-80
2021/12/16 09:03:35;;;;;;;;;47.00;39.00;;;;;;;;5057468;28;45503;-81
2021/12/16 09:06:01;;;;;;;;;45.00;38.00;;;;;;;;5064828;28;45606;-82
2021/12/16 09:08:26;;;;;;;;;47.50;38.25;;;;;;;;5053026;28;45450;-81
2021/12/16 09:10:51;;;;;;;;;50.00;41.00;;;;;;;;5056915;28;45234;-80
2021/12/16 09:13:17;;;;;;;;;49.00;38.25;;;;;;;;5035948;28;45553;-81
2021/12/16 09:15:51;;;;;;;;;53.75;44.50;;;;;;;;5042590;28;46529;-81
2021/12/16 09:18:20;;;;;;;;;48.25;38.25;;;;;;;;5044408;28;45323;-81
2021/12/16 09:20:46;;;;;;;;;47.00;39.50;;;;;;;;5054171;28;45507;-82
2021/12/16 09:23:11;;;;;;;;;45.25;36.25;;;;;;;;5052771;28;45411;-79
2021/12/16 09:25:38;;;;;;;;;47.50;39.25;;;;;;;;5041279;28;47637;-81
2021/12/16 09:28:04;;;;;;;;;49.00;37.50;;;;;;;;5057345;28;45608;-81
2021/12/16 09:30:30;;;;;;;;;48.75;39.75;;;;;;;;5054142;28;45345;-81
2021/12/16 09:32:59;;;;;;;;;46.75;38.50;;;;;;;;5054210;28;45375;-81
2021/12/16 09:35:26;;;;;;;;;52.00;40.75;;;;;;;;5053738;28;46982;-82
2021/12/16 09:37:51;;;;;;;;;52.75;43.00;;;;;;;;5056911;28;45288;-83
2021/12/16 09:40:21;;;;;;;;;45.75;38.75;;;;;;;;5056644;28;45403;-81
2021/12/16 09:42:46;;;;;;;;;47.75;39.25;;;;;;;;5052886;28;45514;-82
2021/12/16 09:45:13;;;;;;;;;51.00;41.50;;;;;;;;5052199;28;47231;-81
2021/12/16 09:47:39;;;;;;;;;48.50;39.00;;;;;;;;5054464;28;45431;-81
2021/12/16 09:50:05;;;;;;;;;42.75;36.75;;;;;;;;5057071;28;45273;-81
2021/12/16 09:52:31;;;;;;;;;44.00;36.75;;;;;;;;5055532;28;45403;-82
2021/12/16 09:54:56;;;;;;;;;46.25;38.00;;;;;;;;5057397;28;45637;-82
2021/12/16 09:57:22;;;;;;;;;48.00;37.25;;;;;;;;5038036;28;45478;-81
2021/12/16 09:59:47;;;;;;;;;51.75;41.00;;;;;;;;5055007;28;45274;-82
2021/12/16 10:02:14;;;;;;;;;47.75;41.00;;;;;;;;5054282;28;45482;-81
2021/12/16 10:04:40;;;;;;;;;47.75;39.25;;;;;;;;5057154;28;45534;-81
2021/12/16 10:07:16;;;;;;;;;38.50;34.75;;;;;;;;5053658;28;45289;-83
2021/12/16 10:09:43;;;;;;;;;47.75;39.25;;;;;;;;5049873;28;45213;-81
2021/12/16 10:12:13;;;;;;;;;47.75;38.50;;;;;;;;5055471;28;45453;-82
2021/12/16 10:17:30;;;;;;;;;42.25;36.00;;;;;;;;5053875;28;45334;-82
2021/12/16 10:20:09;;;;;;;;;40.75;35.50;;;;;;;;5055375;28;45313;-82
2021/12/16 10:22:40;;;;;;;;;43.00;34.25;;;;;;;;5053368;28;45385;-82
2021/12/16 10:25:38;;;;;;;;;35.25;32.00;;;;;;;;5052244;28;45277;-83
2021/12/16 10:28:06;;;;;;;;;43.50;34.25;;;;;;;;5037251;28;45473;-83
2021/12/16 10:30:40;;;;;;;;;51.00;38.75;;;;;;;;5074889;22;45648;-81
2021/12/16 10:33:18;;;;;;;;;55.25;43.25;;;;;;;;5108125;27;45436;-82
2021/12/16 10:35:47;;;;;;;;;46.75;38.25;;;;;;;;5097215;27;46459;-81
2021/12/16 10:38:13;;;;;;;;;43.50;36.25;;;;;;;;5098260;27;45349;-80
2021/12/16 10:40:40;;;;;;;;;49.00;41.00;;;;;;;;5098153;27;45594;-81
2021/12/16 10:43:09;;;;;;;;;47.00;39.00;;;;;;;;5098029;27;45478;-80
2021/12/16 10:45:40;;;;;;;;;48.00;39.50;;;;;;;;5097856;27;46205;-81
2021/12/16 10:48:10;;;;;;;;;43.25;36.75;;;;;;;;5097368;27;45466;-80
2021/12/16 10:50:48;;;;;;;;;41.50;36.00;;;;;;;;5100497;27;45378;-79
2021/12/16 10:53:13;;;;;;;;;43.00;36.75;;;;;;;;5099107;27;45564;-81
2021/12/16 10:55:58;;;;;;;;;51.00;40.75;;;;;;;;5096230;27;47333;-80
2021/12/16 10:58:42;;;;;;;;;49.00;38.75;;;;;;;;5097676;27;45521;-80
2021/12/16 11:01:27;;;;;;;;;43.25;36.50;;;;;;;;5097939;27;46429;-81
2021/12/16 11:03:52;;;;;;;;;41.75;34.75;;;;;;;;5100913;27;45634;-80
2021/12/16 11:06:37;;;;;;;;;42.75;33.75;;;;;;;;5097541;27;45451;-81
2021/12/16 11:09:21;;;;;;;;;47.50;39.75;;;;;;;;5096355;27;45566;-81
2021/12/16 11:11:46;;;;;;;;;47.25;39.75;;;;;;;;5098889;27;45393;-82
2021/12/16 11:14:11;;;;;;;;;56.50;45.75;;;;;;;;5096760;27;45620;-81
2021/12/16 11:16:37;;;;;;;;;55.50;42.50;;;;;;;;5096476;27;46430;-81
2021/12/16 11:19:03;;;;;;;;;47.00;41.75;;;;;;;;5112552;27;45351;-81
2021/12/16 11:21:40;;;;;;;;;54.00;42.50;;;;;;;;5108948;27;45361;-81
2021/12/16 11:24:23;;;;;;;;;49.00;42.00;;;;;;;;5096965;27;45434;-82
2021/12/16 11:26:49;;;;;;;;;40.00;33.25;;;;;;;;5097366;27;46187;-82
2021/12/16 11:29:14;;;;;;;;;47.50;35.50;;;;;;;;5096558;27;45405;-81
2021/12/16 11:31:40;;;;;;;;;34.50;32.00;;;;;;;;5094959;27;45497;-82
2021/12/16 11:34:09;;;;;;;;;40.25;34.75;;;;;;;;5097775;27;45327;-83
2021/12/16 11:36:43;;;;;;;;;43.25;36.00;;;;;;;;5097656;27;45558;-82
2021/12/16 11:39:12;;;;;;;;;42.25;34.75;;;;;;;;5106708;27;45370;-82
2021/12/16 11:41:41;;;;;;;;;40.75;34.25;;;;;;;;5096711;27;45461;-82
2021/12/16 11:44:09;;;;;;;;;43.50;34.50;;;;;;;;5096562;27;45219;-83
2021/12/16 11:46:34;;;;;;;;;52.75;40.25;;;;;;;;5095503;27;46396;-82
2021/12/16 11:49:22;;;;;;;;;43.25;35.50;;;;;;;;5227486;22;45453;-82
2021/12/16 11:52:11;;;;;;;;;35.75;32.00;;;;;;;;5071257;28;45594;-83
2021/12/16 11:55:08;;;;;;;;;47.50;38.50;;;;;;;;5079932;28;45333;-81
2021/12/16 11:57:36;;;;;;;;;48.75;40.50;;;;;;;;5073592;28;46980;-83
2021/12/16 12:00:20;;;;;;;;;44.25;36.50;;;;;;;;5073801;28;45295;-84
2021/12/16 12:02:48;;;;;;;;;39.25;34.00;;;;;;;;5082812;27;45439;-83
2021/12/16 12:05:13;;;;;;;;;40.25;34.00;;;;;;;;5072403;28;45386;-83
2021/12/16 12:07:40;;;;;;;;;41.75;36.00;;;;;;;;5055532;28;47260;-83
2021/12/16 12:10:05;;;;;;;;;35.00;31.25;;;;;;;;5073438;28;45522;-83
2021/12/16 12:12:41;;;;;;;;;33.25;29.00;;;;;;;;5083958;28;45411;-82
2021/12/16 12:15:09;;;;;;;;;32.75;30.25;;;;;;;;5082869;27;45466;-83
2021/12/16 12:17:43;;;;;;;;;34.25;29.00;;;;;;;;5072686;28;45460;-82
2021/12/16 12:20:08;;;;;;;;;36.25;32.25;;;;;;;;5075592;28;45396;-83
2021/12/16 12:22:33;;;;;;;;;40.00;33.50;;;;;;;;5074528;27;45487;-83
2021/12/16 12:24:59;;;;;;;;;37.00;33.00;;;;;;;;5083462;27;45501;-82
2021/12/16 12:27:26;;;;;;;;;39.50;34.00;;;;;;;;5079867;27;46598;-81
2021/12/16 12:29:53;;;;;;;;;33.25;30.00;;;;;;;;5073887;28;45392;-82
2021/12/16 12:32:29;;;;;;;;;33.25;29.75;;;;;;;;5068563;27;45312;-82
2021/12/16 12:35:00;;;;;;;;;39.25;34.50;;;;;;;;5070950;28;45326;-81
2021/12/16 12:37:26;;;;;;;;;40.00;34.75;;;;;;;;5073933;28;45705;-83
2021/12/16 12:39:54;;;;;;;;;35.50;31.50;;;;;;;;5072315;28;45509;-83
2021/12/16 12:42:19;;;;;;;;;36.50;33.50;;;;;;;;5070785;28;45426;-81
2021/12/16 12:44:45;;;;;;;;;41.50;32.25;;;;;;;;5073043;27;45306;-83
2021/12/16 12:47:15;;;;;;;;;37.50;31.75;;;;;;;;5072036;28;45788;-82
2021/12/16 12:49:41;;;;;;;;;40.00;35.25;;;;;;;;5073303;28;45455;-80
2021/12/16 12:52:09;;;;;;;;;35.00;30.25;;;;;;;;5071082;28;48014;-80
2021/12/16 12:54:35;;;;;;;;;31.00;29.50;;;;;;;;5072876;27;45513;-80
2021/12/16 12:57:16;;;;;;;;;40.75;33.00;;;;;;;;5079008;27;45718;-81
2021/12/16 12:59:41;;;;;;;;;32.25;31.25;;;;;;;;5076079;28;45539;-81
2021/12/16 13:02:34;;;;;;;;;41.50;35.50;;;;;;;;5074607;28;45347;-81
2021/12/16 13:05:08;;;;;;;;;29.00;27.75;;;;;;;;5068651;28;45584;-80
2021/12/16 13:07:44;;;;;;;;;36.25;32.25;;;;;;;;5073600;28;47625;-80
2021/12/16 13:10:09;;;;;;;;;33.25;31.75;;;;;;;;5074828;27;45378;-81
2021/12/16 13:12:40;;;;;;;;;32.50;29.25;;;;;;;;5073914;28;45305;-80
2021/12/16 13:15:49;;;;;;;;;30.50;24.75;;;;;;;;5074813;28;45384;-81
2021/12/16 13:23:40;;;;;;;;;35.25;31.25;;;;;;;;5064543;27;45367;-81
2021/12/16 13:26:35;;;;;;;;;39.75;33.50;;;;;;;;5078117;27;45520;-80
2021/12/16 13:29:13;;;;;;;;;30.25;29.50;;;;;;;;5076621;27;46771;-81
2021/12/16 13:31:48;;;;;;;;;33.50;30.50;;;;;;;;5077600;27;45456;-80
2021/12/16 13:34:49;;;;;;;;;43.25;34.25;;;;;;;;5074447;28;45240;-80
2021/12/16 13:37:33;;;;;;;;;30.50;27.50;;;;;;;;5059880;28;45319;-83
2021/12/16 13:40:08;;;;;;;;;34.75;30.75;;;;;;;;5073739;28;46098;-81
2021/12/16 13:43:01;;;;;;;;;34.50;31.00;;;;;;;;5075618;28;45341;-80
2021/12/16 13:45:32;;;;;;;;;30.25;26.00;;;;;;;;5073041;27;45654;-80
2021/12/16 13:48:33;;;;;;;;;37.50;32.75;;;;;;;;5074717;28;47129;-81
2021/12/16 14:02:29;;;;;;;;;34.75;31.25;;;;;;;;5072031;28;45232;-81
2021/12/16 14:07:54;;;;;;;;;38.75;34.25;;;;;;;;5075583;28;45285;-81
2021/12/16 14:10:23;;;;;;;;;51.50;39.75;;;;;;;;5072234;28;45303;-81
2021/12/16 14:14:11;;;;;;;;;41.00;35.25;;;;;;;;5074098;28;46389;-81
2021/12/16 14:41:25;;;;;;;;;44.75;38.25;;;;;;;;4990927;28;45462;-83
2021/12/16 14:49:36;;;;;;;;;39.00;35.75;;;;;;;;4938400;28;45479;-80
2021/12/16 14:52:03;;;;;;;;;33.50;32.00;;;;;;;;4942988;28;45393;-81
2021/12/16 14:54:30;;;;;;;;;41.75;30.00;;;;;;;;4944692;28;45540;-82
2021/12/16 14:57:00;;;;;;;;;46.25;36.25;;;;;;;;4938937;28;47199;-82
2021/12/16 14:59:26;;;;;;;;;45.25;36.50;;;;;;;;4933973;28;45508;-81
2021/12/16 15:01:53;;;;;;;;;42.50;35.75;;;;;;;;4939210;28;45548;-80
2021/12/16 15:04:24;;;;;;;;;43.50;36.50;;;;;;;;4945450;28;45459;-81
2021/12/16 15:06:56;;;;;;;;;47.25;38.00;;;;;;;;4968644;28;46220;-81
2021/12/16 15:09:27;;;;;;;;;38.25;32.25;;;;;;;;4995149;28;45599;-80
2021/12/16 15:12:06;;;;;;;;;41.00;34.00;;;;;;;;4994140;28;45433;-81
2021/12/16 15:17:23;;;;;;;;;41.50;36.00;;;;;;;;4992210;28;45480;-81
2021/12/16 15:36:53;;;;;;;;;40.50;36.00;;;;;;;;5073684;28;45396;-84
2021/12/16 15:46:04;;;;;;;;;37.00;33.25;;;;;;;;5026970;28;45436;-83
2021/12/16 15:48:32;;;;;;;;;37.75;32.25;;;;;;;;4929372;28;45418;-80
2021/12/16 15:50:59;;;;;;;;;40.75;34.25;;;;;;;;4933153;28;45625;-80
2021/12/16 15:56:54;;;;;;;;;44.75;37.25;;;;;;;;4918196;28;45569;-80
2021/12/16 15:59:44;;;;;;;;;39.25;34.75;;;;;;;;4941246;28;45512;-78
2021/12/16 16:02:22;;;;;;;;;43.50;36.25;;;;;;;;4932012;28;46243;-83
2021/12/16 16:08:00;;;;;;;;;50.50;41.00;;;;;;;;4930298;28;45554;-82
2021/12/16 16:10:26;;;;;;;;;42.00;35.75;;;;;;;;4927528;28;45502;-75
2021/12/16 16:12:51;;;;;;;;;43.50;35.25;;;;;;;;4928439;28;47027;-81
2021/12/16 16:15:17;;;;;;;;;43.25;36.00;;;;;;;;4938612;28;45329;-82
2021/12/16 16:17:59;;;;;;;;;21.50;19.25;;;;;;;;4945562;28;45714;-81
2021/12/16 16:20:28;;;;;;;;;50.75;37.25;;;;;;;;5036084;28;45255;-82
2021/12/16 16:22:53;;;;;;;;;47.50;39.25;;;;;;;;5034723;28;46243;-82
2021/12/16 16:25:18;;;;;;;;;48.00;39.75;;;;;;;;5033647;28;45414;-82
2021/12/16 16:27:44;;;;;;;;;43.25;37.00;;;;;;;;5019925;28;45621;-82
2021/12/16 16:30:09;;;;;;;;;37.25;32.75;;;;;;;;5028283;28;45298;-82
2021/12/16 16:33:07;;;;;;;;;46.50;36.75;;;;;;;;5035992;28;46460;-83
2021/12/16 16:35:34;;;;;;;;;46.75;37.25;;;;;;;;4922135;28;45447;-82
2021/12/16 16:38:25;;;;;;;;;44.00;35.00;;;;;;;;4939840;28;45427;-84
2021/12/16 16:40:51;;;;;;;;;43.25;36.50;;;;;;;;4949664;28;45605;-83
2021/12/16 16:43:23;;;;;;;;;45.00;36.00;;;;;;;;4943089;28;46209;-82
2021/12/16 16:45:52;;;;;;;;;44.00;38.00;;;;;;;;4927305;28;45384;-83
2021/12/16 16:48:39;;;;;;;;;42.00;36.50;;;;;;;;4940415;28;45286;-83
2021/12/16 16:51:06;;;;;;;;;45.25;38.25;;;;;;;;4941153;28;45539;-81
2021/12/16 16:53:42;;;;;;;;;44.50;37.00;;;;;;;;4950883;28;46649;-82
2021/12/16 16:56:07;;;;;;;;;47.75;38.25;;;;;;;;4953613;28;45521;-82
2021/12/16 16:58:33;;;;;;;;;39.00;35.25;;;;;;;;4946524;28;46553;-81
2021/12/16 17:00:58;;;;;;;;;48.50;37.00;;;;;;;;4951393;28;45471;-83
2021/12/16 17:03:24;;;;;;;;;43.75;36.50;;;;;;;;4930966;28;48300;-82
2021/12/16 17:05:50;;;;;;;;;41.00;34.75;;;;;;;;4940184;28;45330;-83
2021/12/16 17:08:21;;;;;;;;;44.25;36.00;;;;;;;;4938549;28;45433;-82
2021/12/16 17:11:08;;;;;;;;;48.00;37.25;;;;;;;;4989937;28;45268;-84
2021/12/16 17:13:47;;;;;;;;;42.25;34.25;;;;;;;;5022381;28;46189;-82
2021/12/16 17:18:44;;;;;;;;;39.00;35.50;;;;;;;;5024532;28;45253;-82
2021/12/16 17:21:14;;;;;;;;;42.00;34.75;;;;;;;;5035812;28;45403;-82
2021/12/16 17:23:40;;;;;;;;;42.50;34.25;;;;;;;;5027196;28;47013;-80
2021/12/16 17:26:35;;;;;;;;;35.50;29.00;;;;;;;;5027438;28;45363;-82
2021/12/16 17:29:05;;;;;;;;;45.50;40.50;;;;;;;;5002358;28;45250;-83
2021/12/16 17:31:31;;;;;;;;;36.50;34.00;;;;;;;;5028256;28;45415;-81
2021/12/16 17:34:03;;;;;;;;;44.25;35.25;;;;;;;;5029858;28;46263;-82
2021/12/16 17:36:31;;;;;;;;;33.00;29.75;;;;;;;;5035849;28;45291;-84
2021/12/16 17:39:05;;;;;;;;;41.75;35.00;;;;;;;;5039341;28;45391;-84
2021/12/16 17:41:30;;;;;;;;;43.75;34.25;;;;;;;;5038108;28;45595;-83
2021/12/16 17:43:55;;;;;;;;;32.00;31.00;;;;;;;;5041636;28;45313;-83
2021/12/16 17:46:22;;;;;;;;;28.50;27.75;;;;;;;;5055427;28;45232;-82
2021/12/16 17:48:48;;;;;;;;;32.25;29.25;;;;;;;;5054921;28;45360;-83
2021/12/16 17:51:13;;;;;;;;;41.75;35.00;;;;;;;;5036944;28;45487;-83
2021/12/16 17:53:50;;;;;;;;;37.75;32.25;;;;;;;;5034870;28;45547;-83
2021/12/16 17:56:15;;;;;;;;;36.25;30.50;;;;;;;;5037467;28;45252;-82
2021/12/16 17:58:42;;;;;;;;;36.25;30.50;;;;;;;;5038676;28;45934;-82
2021/12/16 18:01:12;;;;;;;;;43.00;34.00;;;;;;;;5037196;28;45270;-83
2021/12/16 18:03:44;;;;;;;;;35.00;31.75;;;;;;;;5040699;28;46275;-83
2021/12/16 18:06:10;;;;;;;;;37.00;32.75;;;;;;;;5026897;28;45465;-84
2021/12/16 18:08:40;;;;;;;;;33.75;27.25;;;;;;;;5038367;28;45312;-82
2021/12/16 18:11:11;;;;;;;;;32.25;31.00;;;;;;;;5025851;28;45095;-81
2021/12/16 18:13:41;;;;;;;;;30.50;28.75;;;;;;;;5036179;28;45516;-82
2021/12/16 18:16:08;;;;;;;;;35.25;31.25;;;;;;;;5037494;28;45543;-82
2021/12/16 18:18:33;;;;;;;;;30.50;28.25;;;;;;;;5036975;28;45478;-83
2021/12/16 18:21:00;;;;;;;;;34.75;30.50;;;;;;;;5015295;28;45477;-83
2021/12/16 18:23:27;;;;;;;;;34.00;32.25;;;;;;;;5034439;28;45413;-83
2021/12/16 18:25:53;;;;;;;;;34.00;31.25;;;;;;;;5038534;28;45261;-82
2021/12/16 18:28:24;;;;;;;;;40.00;34.50;;;;;;;;5038511;28;45238;-82
2021/12/16 18:30:52;;;;;;;;;39.00;33.75;;;;;;;;5052911;28;44964;-81
2021/12/16 18:33:22;;;;;;;;;40.00;35.25;;;;;;;;5055537;28;46172;-82